sensor_id;sensor_type;location;lat;lon;timestamp;P1;durP1;ratioP1;P2;durP2;ratioP2
14001;SDS011;7076;51.280;12.584;2023-06-24T00:02:07;13.25;;;8.98;;
14001;SDS011;7076;51.280;12.584;2023-06-24T00:07:10;14.82;;;8.80;;
14001;SDS011;7076;51.280;12.584;2023-06-24T00:12:14;14.02;;;8.40;;
14001;SDS011;7076;51.280;12.584;2023-06-24T00:17:20;13.77;;;8.20;;
14001;SDS011;7076;51.280;12.584;2023-06-24T00:22:23;10.25;;;8.38;;
14001;SDS011;7076;51.280;12.584;2023-06-24T00:27:27;12.65;;;8.55;;
14001;SDS011;7076;51.280;12.584;2023-06-24T00:32:30;12.68;;;7.90;;
14001;SDS011;7076;51.280;12.584;2023-06-24T00:37:33;10.98;;;8.10;;
14001;SDS011;7076;51.280;12.584;2023-06-24T00:42:37;16.65;;;8.50;;
14001;SDS011;7076;51.280;12.584;2023-06-24T00:47:40;14.07;;;8.32;;
14001;SDS011;7076;51.280;12.584;2023-06-24T00:52:43;19.70;;;8.57;;
14001;SDS011;7076;51.280;12.584;2023-06-24T00:57:48;15.80;;;8.73;;
14001;SDS011;7076;51.280;12.584;2023-06-24T01:02:52;14.48;;;7.63;;
14001;SDS011;7076;51.280;12.584;2023-06-24T01:07:55;20.42;;;7.50;;
14001;SDS011;7076;51.280;12.584;2023-06-24T01:13:00;17.27;;;7.63;;
14001;SDS011;7076;51.280;12.584;2023-06-24T01:18:05;16.65;;;6.85;;
14001;SDS011;7076;51.280;12.584;2023-06-24T01:23:17;14.63;;;6.75;;
14001;SDS011;7076;51.280;12.584;2023-06-24T01:28:33;13.10;;;6.72;;
14001;SDS011;7076;51.280;12.584;2023-06-24T01:33:52;15.27;;;6.45;;
14001;SDS011;7076;51.280;12.584;2023-06-24T01:39:01;14.13;;;6.72;;
14001;SDS011;7076;51.280;12.584;2023-06-24T01:44:06;16.48;;;6.93;;
14001;SDS011;7076;51.280;12.584;2023-06-24T01:49:13;15.30;;;7.10;;
14001;SDS011;7076;51.280;12.584;2023-06-24T01:54:17;15.43;;;7.22;;
14001;SDS011;7076;51.280;12.584;2023-06-24T01:59:21;9.68;;;6.22;;
14001;SDS011;7076;51.280;12.584;2023-06-24T02:04:26;14.65;;;6.65;;
14001;SDS011;7076;51.280;12.584;2023-06-24T02:09:32;17.40;;;6.50;;
14001;SDS011;7076;51.280;12.584;2023-06-24T02:14:35;12.93;;;6.00;;
14001;SDS011;7076;51.280;12.584;2023-06-24T02:19:40;15.02;;;6.03;;
14001;SDS011;7076;51.280;12.584;2023-06-24T02:24:44;14.45;;;6.95;;
14001;SDS011;7076;51.280;12.584;2023-06-24T02:29:47;14.02;;;6.30;;
14001;SDS011;7076;51.280;12.584;2023-06-24T02:34:52;18.40;;;7.00;;
14001;SDS011;7076;51.280;12.584;2023-06-24T02:39:55;11.80;;;7.10;;
14001;SDS011;7076;51.280;12.584;2023-06-24T02:44:58;12.05;;;7.00;;
14001;SDS011;7076;51.280;12.584;2023-06-24T02:50:03;14.68;;;7.53;;
14001;SDS011;7076;51.280;12.584;2023-06-24T02:55:09;18.83;;;7.15;;
14001;SDS011;7076;51.280;12.584;2023-06-24T03:00:13;15.95;;;6.90;;
14001;SDS011;7076;51.280;12.584;2023-06-24T03:05:39;13.00;;;6.45;;
14001;SDS011;7076;51.280;12.584;2023-06-24T03:10:44;9.98;;;7.03;;
14001;SDS011;7076;51.280;12.584;2023-06-24T03:15:52;11.93;;;7.10;;
14001;SDS011;7076;51.280;12.584;2023-06-24T03:20:57;16.13;;;7.30;;
14001;SDS011;7076;51.280;12.584;2023-06-24T03:26:03;11.88;;;7.05;;
14001;SDS011;7076;51.280;12.584;2023-06-24T03:31:07;12.82;;;7.00;;
14001;SDS011;7076;51.280;12.584;2023-06-24T03:36:12;14.93;;;7.07;;
14001;SDS011;7076;51.280;12.584;2023-06-24T03:41:16;13.48;;;6.93;;
14001;SDS011;7076;51.280;12.584;2023-06-24T03:46:19;11.27;;;6.43;;
14001;SDS011;7076;51.280;12.584;2023-06-24T03:51:23;12.77;;;6.57;;
14001;SDS011;7076;51.280;12.584;2023-06-24T03:56:26;10.40;;;6.90;;
14001;SDS011;7076;51.280;12.584;2023-06-24T04:01:29;17.35;;;7.20;;
14001;SDS011;7076;51.280;12.584;2023-06-24T04:06:34;12.88;;;6.88;;
14001;SDS011;7076;51.280;12.584;2023-06-24T04:11:37;11.45;;;7.25;;
14001;SDS011;7076;51.280;12.584;2023-06-24T04:16:40;10.63;;;6.25;;
14001;SDS011;7076;51.280;12.584;2023-06-24T04:21:45;8.48;;;6.03;;
14001;SDS011;7076;51.280;12.584;2023-06-24T04:26:47;6.75;;;5.65;;
14001;SDS011;7076;51.280;12.584;2023-06-24T04:31:51;9.52;;;6.20;;
14001;SDS011;7076;51.280;12.584;2023-06-24T04:36:55;11.07;;;6.35;;
14001;SDS011;7076;51.280;12.584;2023-06-24T04:41:58;8.00;;;5.93;;
14001;SDS011;7076;51.280;12.584;2023-06-24T04:47:01;10.32;;;6.15;;
14001;SDS011;7076;51.280;12.584;2023-06-24T04:52:07;16.48;;;6.47;;
14001;SDS011;7076;51.280;12.584;2023-06-24T04:57:14;10.45;;;6.03;;
14001;SDS011;7076;51.280;12.584;2023-06-24T05:02:25;9.02;;;5.43;;
14001;SDS011;7076;51.280;12.584;2023-06-24T05:07:30;9.48;;;5.88;;
14001;SDS011;7076;51.280;12.584;2023-06-24T05:12:33;13.73;;;5.65;;
14001;SDS011;7076;51.280;12.584;2023-06-24T05:17:35;6.47;;;5.82;;
14001;SDS011;7076;51.280;12.584;2023-06-24T05:22:40;10.88;;;5.40;;
14001;SDS011;7076;51.280;12.584;2023-06-24T05:27:43;7.43;;;5.90;;
14001;SDS011;7076;51.280;12.584;2023-06-24T05:32:45;8.93;;;5.78;;
14001;SDS011;7076;51.280;12.584;2023-06-24T05:37:50;7.57;;;5.65;;
14001;SDS011;7076;51.280;12.584;2023-06-24T05:42:53;6.63;;;5.93;;
14001;SDS011;7076;51.280;12.584;2023-06-24T05:47:55;10.43;;;6.40;;
14001;SDS011;7076;51.280;12.584;2023-06-24T05:53:00;8.32;;;5.45;;
14001;SDS011;7076;51.280;12.584;2023-06-24T05:58:02;9.38;;;6.82;;
14001;SDS011;7076;51.280;12.584;2023-06-24T06:03:05;9.15;;;5.85;;
14001;SDS011;7076;51.280;12.584;2023-06-24T06:08:10;8.20;;;5.55;;
14001;SDS011;7076;51.280;12.584;2023-06-24T06:13:13;6.85;;;5.28;;
14001;SDS011;7076;51.280;12.584;2023-06-24T06:18:16;7.13;;;5.85;;
14001;SDS011;7076;51.280;12.584;2023-06-24T06:23:20;6.95;;;5.68;;
14001;SDS011;7076;51.280;12.584;2023-06-24T06:28:23;10.30;;;6.28;;
14001;SDS011;7076;51.280;12.584;2023-06-24T06:33:26;11.98;;;6.43;;
14001;SDS011;7076;51.280;12.584;2023-06-24T06:38:31;9.75;;;6.38;;
14001;SDS011;7076;51.280;12.584;2023-06-24T06:43:35;10.23;;;5.95;;
14001;SDS011;7076;51.280;12.584;2023-06-24T06:48:37;7.93;;;6.93;;
14001;SDS011;7076;51.280;12.584;2023-06-24T06:53:42;9.57;;;6.47;;
14001;SDS011;7076;51.280;12.584;2023-06-24T06:58:44;8.07;;;6.63;;
14001;SDS011;7076;51.280;12.584;2023-06-24T07:03:48;8.43;;;6.65;;
14001;SDS011;7076;51.280;12.584;2023-06-24T07:08:53;9.63;;;6.72;;
14001;SDS011;7076;51.280;12.584;2023-06-24T07:13:56;8.63;;;7.00;;
14001;SDS011;7076;51.280;12.584;2023-06-24T07:18:59;11.27;;;7.18;;
14001;SDS011;7076;51.280;12.584;2023-06-24T07:24:03;7.80;;;7.00;;
14001;SDS011;7076;51.280;12.584;2023-06-24T07:29:07;10.23;;;7.03;;
14001;SDS011;7076;51.280;12.584;2023-06-24T07:34:10;8.85;;;6.80;;
14001;SDS011;7076;51.280;12.584;2023-06-24T07:39:14;10.55;;;6.55;;
14001;SDS011;7076;51.280;12.584;2023-06-24T07:44:17;9.05;;;7.30;;
14001;SDS011;7076;51.280;12.584;2023-06-24T07:49:21;8.10;;;5.70;;
14001;SDS011;7076;51.280;12.584;2023-06-24T07:54:25;5.97;;;5.38;;
14001;SDS011;7076;51.280;12.584;2023-06-24T07:59:28;12.73;;;7.20;;
14001;SDS011;7076;51.280;12.584;2023-06-24T08:04:30;8.02;;;6.07;;
14001;SDS011;7076;51.280;12.584;2023-06-24T08:09:35;6.18;;;5.45;;
14001;SDS011;7076;51.280;12.584;2023-06-24T08:14:38;7.47;;;5.88;;
14001;SDS011;7076;51.280;12.584;2023-06-24T08:19:40;7.15;;;5.53;;
14001;SDS011;7076;51.280;12.584;2023-06-24T08:24:45;5.90;;;4.47;;
14001;SDS011;7076;51.280;12.584;2023-06-24T08:29:47;6.72;;;5.22;;
14001;SDS011;7076;51.280;12.584;2023-06-24T08:34:50;11.18;;;5.35;;
14001;SDS011;7076;51.280;12.584;2023-06-24T08:39:55;6.80;;;5.40;;
14001;SDS011;7076;51.280;12.584;2023-06-24T08:44:58;5.78;;;5.05;;
14001;SDS011;7076;51.280;12.584;2023-06-24T08:50:01;6.40;;;4.72;;
14001;SDS011;7076;51.280;12.584;2023-06-24T08:55:09;7.38;;;4.70;;
14001;SDS011;7076;51.280;12.584;2023-06-24T09:00:13;7.57;;;4.53;;
14001;SDS011;7076;51.280;12.584;2023-06-24T09:05:16;5.72;;;5.15;;
14001;SDS011;7076;51.280;12.584;2023-06-24T09:10:30;7.40;;;4.55;;
14001;SDS011;7076;51.280;12.584;2023-06-24T09:15:35;7.60;;;4.53;;
14001;SDS011;7076;51.280;12.584;2023-06-24T09:20:40;5.35;;;4.65;;
14001;SDS011;7076;51.280;12.584;2023-06-24T09:25:55;5.00;;;4.50;;
14001;SDS011;7076;51.280;12.584;2023-06-24T09:31:04;5.10;;;4.38;;
14001;SDS011;7076;51.280;12.584;2023-06-24T09:36:19;8.02;;;4.00;;
14001;SDS011;7076;51.280;12.584;2023-06-24T09:41:24;4.05;;;3.65;;
14001;SDS011;7076;51.280;12.584;2023-06-24T09:46:27;6.50;;;4.18;;
14001;SDS011;7076;51.280;12.584;2023-06-24T09:51:32;5.55;;;5.03;;
14001;SDS011;7076;51.280;12.584;2023-06-24T09:56:40;4.22;;;3.83;;
14001;SDS011;7076;51.280;12.584;2023-06-24T10:01:45;7.05;;;4.13;;
14001;SDS011;7076;51.280;12.584;2023-06-24T10:06:50;4.57;;;3.70;;
14001;SDS011;7076;51.280;12.584;2023-06-24T10:11:54;5.47;;;3.88;;
14001;SDS011;7076;51.280;12.584;2023-06-24T10:17:01;6.25;;;4.32;;
14001;SDS011;7076;51.280;12.584;2023-06-24T10:22:07;3.50;;;3.20;;
14001;SDS011;7076;51.280;12.584;2023-06-24T10:27:15;5.15;;;3.25;;
14001;SDS011;7076;51.280;12.584;2023-06-24T10:32:19;4.07;;;3.45;;
14001;SDS011;7076;51.280;12.584;2023-06-24T10:37:23;7.38;;;3.03;;
14001;SDS011;7076;51.280;12.584;2023-06-24T10:42:32;3.83;;;3.40;;
14001;SDS011;7076;51.280;12.584;2023-06-24T10:47:45;5.80;;;3.75;;
14001;SDS011;7076;51.280;12.584;2023-06-24T10:52:49;6.05;;;3.38;;
14001;SDS011;7076;51.280;12.584;2023-06-24T10:58:07;4.00;;;3.03;;
14001;SDS011;7076;51.280;12.584;2023-06-24T11:03:13;5.80;;;3.30;;
14001;SDS011;7076;51.280;12.584;2023-06-24T11:08:18;3.85;;;3.25;;
14001;SDS011;7076;51.280;12.584;2023-06-24T11:13:22;3.55;;;3.22;;
14001;SDS011;7076;51.280;12.584;2023-06-24T11:18:26;5.35;;;3.38;;
14001;SDS011;7076;51.280;12.584;2023-06-24T11:23:29;3.42;;;2.92;;
14001;SDS011;7076;51.280;12.584;2023-06-24T11:28:37;6.60;;;3.42;;
14001;SDS011;7076;51.280;12.584;2023-06-24T11:33:40;4.22;;;3.03;;
14001;SDS011;7076;51.280;12.584;2023-06-24T11:38:42;3.30;;;3.00;;
14001;SDS011;7076;51.280;12.584;2023-06-24T11:43:47;3.78;;;2.80;;
14001;SDS011;7076;51.280;12.584;2023-06-24T11:48:50;4.38;;;3.00;;
14001;SDS011;7076;51.280;12.584;2023-06-24T11:53:58;3.30;;;2.60;;
14001;SDS011;7076;51.280;12.584;2023-06-24T11:59:04;2.80;;;2.50;;
14001;SDS011;7076;51.280;12.584;2023-06-24T12:04:09;4.35;;;2.50;;
14001;SDS011;7076;51.280;12.584;2023-06-24T12:09:12;3.72;;;2.80;;
14001;SDS011;7076;51.280;12.584;2023-06-24T12:14:17;3.40;;;2.80;;
14001;SDS011;7076;51.280;12.584;2023-06-24T12:19:20;2.53;;;2.30;;
14001;SDS011;7076;51.280;12.584;2023-06-24T12:24:23;3.25;;;2.60;;
14001;SDS011;7076;51.280;12.584;2023-06-24T12:29:27;3.45;;;2.50;;
14001;SDS011;7076;51.280;12.584;2023-06-24T12:34:30;3.40;;;2.55;;
14001;SDS011;7076;51.280;12.584;2023-06-24T12:39:33;3.33;;;2.42;;
14001;SDS011;7076;51.280;12.584;2023-06-24T12:44:37;4.05;;;2.30;;
14001;SDS011;7076;51.280;12.584;2023-06-24T12:49:40;4.45;;;2.30;;
14001;SDS011;7076;51.280;12.584;2023-06-24T12:54:43;2.50;;;2.10;;
14001;SDS011;7076;51.280;12.584;2023-06-24T12:59:48;4.63;;;2.20;;
14001;SDS011;7076;51.280;12.584;2023-06-24T13:04:51;4.00;;;2.30;;
14001;SDS011;7076;51.280;12.584;2023-06-24T13:09:54;5.90;;;2.03;;
14001;SDS011;7076;51.280;12.584;2023-06-24T13:14:58;3.25;;;1.80;;
14001;SDS011;7076;51.280;12.584;2023-06-24T13:20:01;4.45;;;2.30;;
14001;SDS011;7076;51.280;12.584;2023-06-24T13:25:06;4.30;;;2.28;;
14001;SDS011;7076;51.280;12.584;2023-06-24T13:30:11;2.33;;;2.13;;
14001;SDS011;7076;51.280;12.584;2023-06-24T13:35:17;3.40;;;2.25;;
14001;SDS011;7076;51.280;12.584;2023-06-24T13:40:19;2.30;;;2.10;;
14001;SDS011;7076;51.280;12.584;2023-06-24T13:45:24;3.55;;;2.28;;
14001;SDS011;7076;51.280;12.584;2023-06-24T13:50:26;2.50;;;1.90;;
14001;SDS011;7076;51.280;12.584;2023-06-24T13:55:30;2.88;;;2.50;;
14001;SDS011;7076;51.280;12.584;2023-06-24T14:00:35;3.30;;;2.28;;
14001;SDS011;7076;51.280;12.584;2023-06-24T14:05:38;6.95;;;2.35;;
14001;SDS011;7076;51.280;12.584;2023-06-24T14:10:41;4.07;;;2.20;;
14001;SDS011;7076;51.280;12.584;2023-06-24T14:15:45;3.35;;;2.35;;
14001;SDS011;7076;51.280;12.584;2023-06-24T14:20:48;4.45;;;2.20;;
14001;SDS011;7076;51.280;12.584;2023-06-24T14:25:51;2.72;;;2.30;;
14001;SDS011;7076;51.280;12.584;2023-06-24T14:30:56;2.35;;;2.15;;
14001;SDS011;7076;51.280;12.584;2023-06-24T14:35:59;2.53;;;2.03;;
14001;SDS011;7076;51.280;12.584;2023-06-24T14:41:02;2.30;;;2.08;;
14001;SDS011;7076;51.280;12.584;2023-06-24T14:46:06;2.30;;;1.95;;
14001;SDS011;7076;51.280;12.584;2023-06-24T14:51:09;4.10;;;1.88;;
14001;SDS011;7076;51.280;12.584;2023-06-24T14:56:12;4.10;;;1.90;;
14001;SDS011;7076;51.280;12.584;2023-06-24T15:01:16;3.08;;;1.85;;
14001;SDS011;7076;51.280;12.584;2023-06-24T15:06:19;4.38;;;2.10;;
14001;SDS011;7076;51.280;12.584;2023-06-24T15:11:22;1.80;;;1.70;;
14001;SDS011;7076;51.280;12.584;2023-06-24T15:16:26;2.20;;;2.00;;
14001;SDS011;7076;51.280;12.584;2023-06-24T15:21:29;1.98;;;1.88;;
14001;SDS011;7076;51.280;12.584;2023-06-24T15:26:37;1.70;;;1.60;;
14001;SDS011;7076;51.280;12.584;2023-06-24T15:31:42;1.92;;;1.77;;
14001;SDS011;7076;51.280;12.584;2023-06-24T15:36:45;2.28;;;2.05;;
14001;SDS011;7076;51.280;12.584;2023-06-24T15:41:49;3.13;;;1.80;;
14001;SDS011;7076;51.280;12.584;2023-06-24T15:46:53;3.38;;;1.85;;
14001;SDS011;7076;51.280;12.584;2023-06-24T15:51:56;2.05;;;1.52;;
14001;SDS011;7076;51.280;12.584;2023-06-24T15:56:59;2.75;;;1.80;;
14001;SDS011;7076;51.280;12.584;2023-06-24T16:02:04;2.35;;;1.90;;
14001;SDS011;7076;51.280;12.584;2023-06-24T16:07:07;2.90;;;1.73;;
14001;SDS011;7076;51.280;12.584;2023-06-24T16:12:10;4.03;;;1.92;;
14001;SDS011;7076;51.280;12.584;2023-06-24T16:17:14;2.15;;;1.95;;
14001;SDS011;7076;51.280;12.584;2023-06-24T16:22:17;2.90;;;2.20;;
14001;SDS011;7076;51.280;12.584;2023-06-24T16:27:20;3.35;;;2.13;;
14001;SDS011;7076;51.280;12.584;2023-06-24T16:32:24;2.70;;;2.20;;
14001;SDS011;7076;51.280;12.584;2023-06-24T16:37:27;3.20;;;1.90;;
14001;SDS011;7076;51.280;12.584;2023-06-24T16:42:30;2.15;;;1.95;;
14001;SDS011;7076;51.280;12.584;2023-06-24T16:47:34;1.85;;;1.75;;
14001;SDS011;7076;51.280;12.584;2023-06-24T16:52:37;3.33;;;2.22;;
14001;SDS011;7076;51.280;12.584;2023-06-24T16:57:40;3.42;;;1.98;;
14001;SDS011;7076;51.280;12.584;2023-06-24T17:02:44;3.15;;;2.10;;
14001;SDS011;7076;51.280;12.584;2023-06-24T17:07:47;2.22;;;2.03;;
14001;SDS011;7076;51.280;12.584;2023-06-24T17:12:50;5.00;;;2.30;;
14001;SDS011;7076;51.280;12.584;2023-06-24T17:17:55;2.42;;;2.00;;
14001;SDS011;7076;51.280;12.584;2023-06-24T17:22:58;2.22;;;2.03;;
14001;SDS011;7076;51.280;12.584;2023-06-24T17:28:01;2.53;;;2.22;;
14001;SDS011;7076;51.280;12.584;2023-06-24T17:33:05;2.78;;;2.40;;
14001;SDS011;7076;51.280;12.584;2023-06-24T17:38:08;3.35;;;2.17;;
14001;SDS011;7076;51.280;12.584;2023-06-24T17:43:11;3.25;;;2.40;;
14001;SDS011;7076;51.280;12.584;2023-06-24T17:48:15;2.78;;;2.42;;
14001;SDS011;7076;51.280;12.584;2023-06-24T17:53:18;2.55;;;2.20;;
14001;SDS011;7076;51.280;12.584;2023-06-24T17:58:22;2.30;;;2.10;;
14001;SDS011;7076;51.280;12.584;2023-06-24T18:03:27;4.60;;;2.28;;
14001;SDS011;7076;51.280;12.584;2023-06-24T18:08:30;5.40;;;2.28;;
14001;SDS011;7076;51.280;12.584;2023-06-24T18:13:33;2.25;;;2.05;;
14001;SDS011;7076;51.280;12.584;2023-06-24T18:18:37;2.50;;;2.30;;
14001;SDS011;7076;51.280;12.584;2023-06-24T18:23:40;4.18;;;2.50;;
14001;SDS011;7076;51.280;12.584;2023-06-24T18:28:45;2.65;;;2.10;;
14001;SDS011;7076;51.280;12.584;2023-06-24T18:33:49;2.38;;;2.17;;
14001;SDS011;7076;51.280;12.584;2023-06-24T18:38:52;2.42;;;2.20;;
14001;SDS011;7076;51.280;12.584;2023-06-24T18:43:55;4.50;;;2.50;;
14001;SDS011;7076;51.280;12.584;2023-06-24T18:49:00;2.70;;;2.40;;
14001;SDS011;7076;51.280;12.584;2023-06-24T18:54:03;5.07;;;2.20;;
14001;SDS011;7076;51.280;12.584;2023-06-24T18:59:06;2.30;;;2.10;;
14001;SDS011;7076;51.280;12.584;2023-06-24T19:04:10;2.70;;;2.45;;
14001;SDS011;7076;51.280;12.584;2023-06-24T19:09:13;3.08;;;2.47;;
14001;SDS011;7076;51.280;12.584;2023-06-24T19:14:16;3.08;;;2.60;;
14001;SDS011;7076;51.280;12.584;2023-06-24T19:19:21;3.45;;;2.63;;
14001;SDS011;7076;51.280;12.584;2023-06-24T19:24:25;3.70;;;2.67;;
14001;SDS011;7076;51.280;12.584;2023-06-24T19:29:28;3.60;;;2.55;;
14001;SDS011;7076;51.280;12.584;2023-06-24T19:34:33;3.50;;;2.78;;
14001;SDS011;7076;51.280;12.584;2023-06-24T19:39:38;3.70;;;2.60;;
14001;SDS011;7076;51.280;12.584;2023-06-24T19:44:41;5.28;;;2.40;;
14001;SDS011;7076;51.280;12.584;2023-06-24T19:49:51;4.03;;;2.65;;
14001;SDS011;7076;51.280;12.584;2023-06-24T19:54:55;3.20;;;2.92;;
14001;SDS011;7076;51.280;12.584;2023-06-24T20:00:00;2.97;;;2.78;;
14001;SDS011;7076;51.280;12.584;2023-06-24T20:05:15;3.30;;;2.85;;
14001;SDS011;7076;51.280;12.584;2023-06-24T20:10:18;5.05;;;2.90;;
14001;SDS011;7076;51.280;12.584;2023-06-24T20:15:21;4.10;;;3.40;;
14001;SDS011;7076;51.280;12.584;2023-06-24T20:20:26;5.60;;;3.38;;
14001;SDS011;7076;51.280;12.584;2023-06-24T20:25:29;4.18;;;3.78;;
14001;SDS011;7076;51.280;12.584;2023-06-24T20:30:32;5.57;;;4.25;;
14001;SDS011;7076;51.280;12.584;2023-06-24T20:35:37;6.97;;;4.47;;
14001;SDS011;7076;51.280;12.584;2023-06-24T20:40:40;8.35;;;4.90;;
14001;SDS011;7076;51.280;12.584;2023-06-24T20:45:44;5.55;;;4.32;;
14001;SDS011;7076;51.280;12.584;2023-06-24T20:50:48;5.18;;;4.50;;
14001;SDS011;7076;51.280;12.584;2023-06-24T20:55:52;8.70;;;5.18;;
14001;SDS011;7076;51.280;12.584;2023-06-24T21:00:55;12.00;;;8.07;;
14001;SDS011;7076;51.280;12.584;2023-06-24T21:05:59;10.48;;;8.52;;
14001;SDS011;7076;51.280;12.584;2023-06-24T21:11:02;9.65;;;6.82;;
14001;SDS011;7076;51.280;12.584;2023-06-24T21:16:05;9.57;;;6.47;;
14001;SDS011;7076;51.280;12.584;2023-06-24T21:21:10;8.35;;;7.00;;
14001;SDS011;7076;51.280;12.584;2023-06-24T21:26:13;10.48;;;7.68;;
14001;SDS011;7076;51.280;12.584;2023-06-24T21:31:16;7.93;;;6.63;;
14001;SDS011;7076;51.280;12.584;2023-06-24T21:36:20;7.70;;;6.90;;
14001;SDS011;7076;51.280;12.584;2023-06-24T21:41:23;18.92;;;6.25;;
14001;SDS011;7076;51.280;12.584;2023-06-24T21:46:27;7.20;;;6.32;;
14001;SDS011;7076;51.280;12.584;2023-06-24T21:51:32;9.27;;;6.40;;
14001;SDS011;7076;51.280;12.584;2023-06-24T21:56:36;7.90;;;6.18;;
14001;SDS011;7076;51.280;12.584;2023-06-24T22:01:39;8.15;;;5.70;;
14001;SDS011;7076;51.280;12.584;2023-06-24T22:06:43;6.68;;;6.05;;
14001;SDS011;7076;51.280;12.584;2023-06-24T22:11:46;8.85;;;7.35;;
14001;SDS011;7076;51.280;12.584;2023-06-24T22:16:49;9.57;;;7.38;;
14001;SDS011;7076;51.280;12.584;2023-06-24T22:21:54;13.43;;;9.35;;
14001;SDS011;7076;51.280;12.584;2023-06-24T22:26:56;9.05;;;8.15;;
14001;SDS011;7076;51.280;12.584;2023-06-24T22:31:59;13.52;;;8.38;;
14001;SDS011;7076;51.280;12.584;2023-06-24T22:37:04;9.23;;;7.78;;
14001;SDS011;7076;51.280;12.584;2023-06-24T22:42:07;8.88;;;8.00;;
14001;SDS011;7076;51.280;12.584;2023-06-24T22:47:10;8.60;;;7.72;;
14001;SDS011;7076;51.280;12.584;2023-06-24T22:52:14;9.75;;;7.65;;
14001;SDS011;7076;51.280;12.584;2023-06-24T22:57:17;8.25;;;7.45;;
14001;SDS011;7076;51.280;12.584;2023-06-24T23:02:20;7.53;;;6.82;;
14001;SDS011;7076;51.280;12.584;2023-06-24T23:07:26;7.32;;;6.63;;
14001;SDS011;7076;51.280;12.584;2023-06-24T23:12:29;7.65;;;6.07;;
14001;SDS011;7076;51.280;12.584;2023-06-24T23:17:32;7.18;;;5.95;;
14001;SDS011;7076;51.280;12.584;2023-06-24T23:22:37;8.65;;;5.97;;
14001;SDS011;7076;51.280;12.584;2023-06-24T23:27:40;8.48;;;5.80;;
14001;SDS011;7076;51.280;12.584;2023-06-24T23:32:44;6.57;;;5.18;;
14001;SDS011;7076;51.280;12.584;2023-06-24T23:37:49;7.43;;;5.30;;
14001;SDS011;7076;51.280;12.584;2023-06-24T23:42:52;7.85;;;5.28;;
14001;SDS011;7076;51.280;12.584;2023-06-24T23:47:56;6.40;;;5.32;;
14001;SDS011;7076;51.280;12.584;2023-06-24T23:53:00;6.45;;;4.88;;
14001;SDS011;7076;51.280;12.584;2023-06-24T23:58:03;6.72;;;4.53;;
